createdAt,value
2023-03-25T00:01:19.154Z,70.73
2023-03-25T00:03:53.413Z,70.68
2023-03-25T00:06:26.744Z,70.74
2023-03-25T00:09:02.232Z,70.82
2023-03-25T00:11:36.429Z,70.68
2023-03-25T00:14:11.238Z,70.72
2023-03-25T00:16:46.229Z,70.89
2023-03-25T00:19:21.380Z,70.97
2023-03-25T00:21:55.021Z,71.03
2023-03-25T00:24:28.857Z,71.10
2023-03-25T00:27:02.663Z,71.12
2023-03-25T00:29:36.491Z,71.15
2023-03-25T00:32:09.972Z,71.17
2023-03-25T00:34:44.970Z,71.27
2023-03-25T00:37:20.224Z,71.33
2023-03-25T00:39:53.800Z,71.32
2023-03-25T00:42:27.314Z,71.33
2023-03-25T00:45:01.008Z,71.41
2023-03-25T00:47:34.532Z,71.29
2023-03-25T00:50:09.944Z,71.25
2023-03-25T00:52:43.376Z,71.25
2023-03-25T00:55:17.337Z,71.25
2023-03-25T00:57:50.858Z,71.26
2023-03-25T01:00:24.707Z,71.47
2023-03-25T01:02:58.472Z,71.49
2023-03-25T01:05:32.107Z,71.46
2023-03-25T01:08:06.306Z,71.40
2023-03-25T01:10:39.634Z,71.22
2023-03-25T01:13:12.765Z,71.07
2023-03-25T01:15:46.088Z,71.05
2023-03-25T01:18:19.654Z,71.10
2023-03-25T01:20:53.166Z,70.94
2023-03-25T01:23:26.485Z,71.02
2023-03-25T01:26:01.369Z,71.10
2023-03-25T01:28:34.730Z,71.00
2023-03-25T01:31:13.325Z,70.94
2023-03-25T01:33:46.967Z,71.02
2023-03-25T01:36:21.542Z,71.13
2023-03-25T01:38:54.910Z,71.06
2023-03-25T01:41:39.140Z,71.22
2023-03-25T01:44:10.396Z,71.25
2023-03-25T01:46:45.597Z,71.31
2023-03-25T01:49:24.060Z,71.32
2023-03-25T01:52:00.966Z,71.29
2023-03-25T01:54:35.053Z,71.41
2023-03-25T01:57:10.458Z,71.29
2023-03-25T01:59:44.697Z,71.36
2023-03-25T02:02:19.460Z,71.35
2023-03-25T02:04:57.902Z,71.42
2023-03-25T02:07:34.416Z,71.36
2023-03-25T02:10:11.248Z,71.42
2023-03-25T02:12:45.928Z,71.49
2023-03-25T02:15:21.078Z,71.40
2023-03-25T02:18:14.860Z,71.32
2023-03-25T02:21:37.706Z,71.31
2023-03-25T02:24:37.164Z,71.24
2023-03-25T02:27:28.483Z,71.33
2023-03-25T02:30:32.541Z,71.42
2023-03-25T02:33:41.919Z,71.37
2023-03-25T02:39:27.973Z,71.71
2023-03-25T02:42:04.284Z,71.59
2023-03-25T02:44:41.762Z,71.43
2023-03-25T02:47:17.946Z,71.38
2023-03-25T02:49:54.938Z,71.48
2023-03-25T02:52:31.506Z,71.57
2023-03-25T02:55:10.782Z,71.67
2023-03-25T02:57:47.824Z,71.52
2023-03-25T03:00:26.912Z,71.42
2023-03-25T03:03:02.803Z,71.36
2023-03-25T03:05:40.036Z,71.20
2023-03-25T03:08:25.001Z,71.00
2023-03-25T03:11:02.619Z,70.87
2023-03-25T03:13:41.810Z,70.70
2023-03-25T03:16:18.384Z,70.62
2023-03-25T03:18:56.993Z,70.48
2023-03-25T03:21:33.291Z,70.36
2023-03-25T03:24:09.926Z,70.21
2023-03-25T03:26:47.123Z,70.12
2023-03-25T03:29:23.499Z,70.03
2023-03-25T03:32:06.564Z,69.85
2023-03-25T03:34:39.733Z,69.74
2023-03-25T03:37:12.978Z,69.61
2023-03-25T03:39:47.588Z,69.53
2023-03-25T03:45:07.210Z,69.63
2023-03-25T03:47:43.695Z,69.63
2023-03-25T03:50:20.665Z,69.59
2023-03-25T03:52:57.409Z,69.56
2023-03-25T03:55:36.029Z,69.42
2023-03-25T03:58:15.409Z,69.36
2023-03-25T04:00:52.198Z,69.29
2023-03-25T04:03:28.584Z,69.21
2023-03-25T04:06:07.376Z,69.05
2023-03-25T04:08:44.654Z,68.93
2023-03-25T04:11:21.245Z,68.85
2023-03-25T04:13:57.021Z,68.90
2023-03-25T04:16:33.979Z,68.88
2023-03-25T04:19:07.351Z,68.81
2023-03-25T04:21:41.739Z,68.64
2023-03-25T04:24:17.080Z,68.68
2023-03-25T04:26:52.189Z,68.61
2023-03-25T04:29:25.755Z,68.38
2023-03-25T04:31:59.488Z,68.23
2023-03-25T04:34:32.949Z,68.07
2023-03-25T04:37:09.780Z,68.24
2023-03-25T04:39:42.920Z,68.21
2023-03-25T04:42:17.966Z,68.19
2023-03-25T04:44:51.070Z,68.17
2023-03-25T04:47:26.218Z,68.15
2023-03-25T04:49:59.346Z,67.98
2023-03-25T04:52:34.761Z,67.71
2023-03-25T04:55:10.731Z,67.64
2023-03-25T04:57:43.920Z,67.45
2023-03-25T05:00:19.788Z,67.23
2023-03-25T05:02:55.336Z,67.19
2023-03-25T05:05:28.730Z,66.95
2023-03-25T05:08:02.196Z,66.83
2023-03-25T05:10:36.570Z,66.76
2023-03-25T05:13:11.300Z,66.48
2023-03-25T05:15:44.779Z,66.07
2023-03-25T05:18:19.022Z,66.14
2023-03-25T05:20:53.657Z,66.18
2023-03-25T05:23:27.328Z,66.10
2023-03-25T05:26:00.583Z,65.93
2023-03-25T05:28:34.001Z,66.00
2023-03-25T05:31:08.776Z,65.84
2023-03-25T05:33:43.504Z,65.73
2023-03-25T05:36:17.239Z,65.63
2023-03-25T05:38:50.863Z,65.75
2023-03-25T05:41:26.493Z,65.59
2023-03-25T05:44:00.621Z,65.85
2023-03-25T05:46:34.621Z,66.00
2023-03-25T05:49:07.914Z,66.23
2023-03-25T05:51:42.100Z,66.28
2023-03-25T05:54:15.255Z,66.38
2023-03-25T05:56:48.776Z,66.45
2023-03-25T05:59:22.210Z,66.57
2023-03-25T06:01:55.965Z,66.43
2023-03-25T06:04:29.693Z,66.24
2023-03-25T06:07:04.024Z,65.84
2023-03-25T06:09:37.535Z,65.31
2023-03-25T06:12:11.170Z,64.94
2023-03-25T06:14:45.919Z,64.97
2023-03-25T06:17:22.170Z,65.02
2023-03-25T06:19:55.580Z,65.11
2023-03-25T06:22:29.082Z,65.28
2023-03-25T06:25:04.068Z,65.51
2023-03-25T06:27:38.338Z,65.84
2023-03-25T06:30:14.873Z,66.13
2023-03-25T06:32:50.640Z,66.49
2023-03-25T06:35:24.479Z,66.66
2023-03-25T06:37:58.064Z,67.13
2023-03-25T06:40:33.196Z,67.64
2023-03-25T06:43:07.644Z,67.95
2023-03-25T06:46:01.783Z,68.68
2023-03-25T06:48:38.162Z,69.61
2023-03-25T06:51:12.209Z,70.22
2023-03-25T06:53:45.416Z,71.73
2023-03-25T06:56:19.197Z,73.23
2023-03-25T06:58:52.460Z,74.93
2023-03-25T07:01:26.188Z,76.47
2023-03-25T07:03:59.591Z,77.72
2023-03-25T07:06:33.986Z,78.80
2023-03-25T07:09:07.770Z,79.58
2023-03-25T07:11:41.413Z,80.19
2023-03-25T07:14:14.735Z,80.74
2023-03-25T07:16:47.432Z,81.21
2023-03-25T07:19:21.150Z,81.60
2023-03-25T07:21:54.499Z,81.91
2023-03-25T07:24:28.085Z,82.19
2023-03-25T07:27:01.500Z,82.40
2023-03-25T07:29:35.406Z,82.71
2023-03-25T07:37:14.589Z,83.23
2023-03-25T07:39:48.135Z,83.38
2023-03-25T07:42:21.590Z,83.50
2023-03-25T07:44:59.300Z,83.63
2023-03-25T07:47:34.568Z,83.73
2023-03-25T07:50:09.920Z,83.83
2023-03-25T07:52:43.247Z,84.00
2023-03-25T07:55:17.918Z,84.10
2023-03-25T07:57:51.297Z,84.14
2023-03-25T08:00:25.211Z,84.26
2023-03-25T08:02:58.576Z,84.39
2023-03-25T08:05:32.402Z,84.52
2023-03-25T08:08:07.787Z,84.69
2023-03-25T08:10:43.010Z,84.75
2023-03-25T08:13:16.817Z,84.80
2023-03-25T08:15:50.475Z,84.94
2023-03-25T08:18:24.083Z,85.09
2023-03-25T08:20:57.512Z,85.26
2023-03-25T08:23:31.712Z,85.42
2023-03-25T08:28:39.169Z,85.62
2023-03-25T08:31:12.668Z,85.76
2023-03-25T08:33:46.150Z,85.80
2023-03-25T08:36:22.223Z,85.89
2023-03-25T08:38:56.002Z,86.06
2023-03-25T08:41:29.537Z,86.16
2023-03-25T08:46:35.362Z,86.48
2023-03-25T08:49:08.949Z,86.56
2023-03-25T08:51:42.296Z,86.61
2023-03-25T08:54:16.150Z,86.66
2023-03-25T08:56:49.859Z,86.76
2023-03-25T08:59:23.112Z,86.88
2023-03-25T09:01:58.792Z,86.80
2023-03-25T09:04:32.837Z,86.76
2023-03-25T09:07:11.770Z,86.84
2023-03-25T09:09:43.046Z,86.78
2023-03-25T09:12:27.302Z,86.67
2023-03-25T09:15:03.168Z,86.37
2023-03-25T09:17:36.806Z,86.39
2023-03-25T09:20:12.200Z,86.36
2023-03-25T09:22:45.695Z,85.91
2023-03-25T09:25:19.584Z,85.80
2023-03-25T09:27:53.129Z,85.81
2023-03-25T09:30:26.515Z,85.98
2023-03-25T09:33:00.165Z,85.58
2023-03-25T09:35:33.852Z,85.69
2023-03-25T09:38:07.602Z,86.08
2023-03-25T09:40:43.785Z,86.15
2023-03-25T09:43:26.609Z,86.35
2023-03-25T09:46:01.446Z,86.36
2023-03-25T09:48:38.416Z,86.44
2023-03-25T09:51:15.584Z,86.52
2023-03-25T09:53:52.239Z,86.59
2023-03-25T09:56:28.802Z,86.71
2023-03-25T09:59:05.317Z,87.01
2023-03-25T10:01:43.473Z,86.97
2023-03-25T10:04:39.160Z,87.00
2023-03-25T10:07:17.378Z,87.00
2023-03-25T10:09:54.245Z,86.96
2023-03-25T10:12:35.896Z,86.90
2023-03-25T10:15:21.406Z,87.01
2023-03-25T10:18:08.697Z,86.97
2023-03-25T10:20:48.211Z,86.91
2023-03-25T10:23:25.835Z,87.08
2023-03-25T10:26:02.351Z,87.08
2023-03-25T10:28:38.912Z,86.79
2023-03-25T10:31:16.060Z,87.04
2023-03-25T10:33:53.214Z,87.06
2023-03-25T10:36:30.316Z,86.95
2023-03-25T10:39:06.077Z,87.35
2023-03-25T10:41:43.594Z,87.35
2023-03-25T10:44:17.158Z,87.24
2023-03-25T10:46:53.433Z,87.19
2023-03-25T10:49:29.943Z,87.52
2023-03-25T10:52:05.117Z,87.50
2023-03-25T10:54:41.745Z,87.23
2023-03-25T10:57:19.056Z,86.98
2023-03-25T11:00:02.101Z,87.06
2023-03-25T11:02:37.625Z,87.08
2023-03-25T11:05:15.936Z,87.11
2023-03-25T11:07:53.145Z,87.38
2023-03-25T11:10:29.380Z,87.23
2023-03-25T11:13:06.756Z,87.38
2023-03-25T11:15:42.057Z,87.29
2023-03-25T11:21:01.405Z,87.24
2023-03-25T11:23:37.242Z,87.37
2023-03-25T11:26:14.810Z,87.33
2023-03-25T11:28:50.780Z,87.35
2023-03-25T11:31:26.572Z,86.98
2023-03-25T11:34:12.997Z,87.26
2023-03-25T11:36:55.486Z,87.54
2023-03-25T11:39:33.105Z,87.67
2023-03-25T11:42:17.463Z,87.61
2023-03-25T11:44:54.897Z,87.57
2023-03-25T11:47:30.875Z,87.29
2023-03-25T11:50:05.598Z,87.41
2023-03-25T11:52:42.981Z,87.39
2023-03-25T11:55:21.225Z,87.76
2023-03-25T11:57:56.623Z,87.27
2023-03-25T12:00:37.404Z,87.26
2023-03-25T12:03:20.786Z,87.62
2023-03-25T12:06:02.572Z,87.69
2023-03-25T12:08:44.608Z,87.68
2023-03-25T12:11:21.774Z,87.84
2023-03-25T12:14:09.009Z,87.64
2023-03-25T12:16:45.859Z,87.94
2023-03-25T12:19:23.609Z,87.41
2023-03-25T12:22:00.207Z,87.51
2023-03-25T12:24:44.868Z,87.50
2023-03-25T12:27:29.478Z,87.41
2023-03-25T12:30:07.630Z,87.41
2023-03-25T12:35:54.145Z,87.26
2023-03-25T12:38:36.552Z,87.36
2023-03-25T12:41:19.958Z,86.92
2023-03-25T12:44:06.959Z,86.73
2023-03-25T12:47:00.775Z,86.70
2023-03-25T12:49:46.353Z,86.92
2023-03-25T12:52:24.082Z,86.93
2023-03-25T12:55:07.643Z,86.71
2023-03-25T12:57:49.144Z,86.83
2023-03-25T13:00:33.970Z,86.71
2023-03-25T13:06:24.840Z,86.84
2023-03-25T13:09:01.263Z,86.79
2023-03-25T13:11:37.265Z,86.68
2023-03-25T13:14:14.737Z,86.67
2023-03-25T13:16:51.919Z,86.58
2023-03-25T13:19:28.338Z,86.37
2023-03-25T13:22:04.731Z,85.65
2023-03-25T13:24:43.252Z,85.81
2023-03-25T13:27:17.528Z,86.03
2023-03-25T13:29:53.880Z,86.01
2023-03-25T13:32:30.369Z,85.88
2023-03-25T13:35:15.059Z,85.84
2023-03-25T13:37:53.147Z,86.04
2023-03-25T13:40:29.494Z,85.49
2023-03-25T13:43:05.995Z,85.65
2023-03-25T13:45:44.825Z,85.86
2023-03-25T13:48:25.066Z,85.80
2023-03-25T13:51:03.054Z,84.79
2023-03-25T13:53:39.743Z,84.06
2023-03-25T13:56:36.381Z,83.93
2023-03-25T13:59:27.532Z,83.69
2023-03-25T14:02:25.415Z,83.51
2023-03-25T14:05:19.557Z,83.38
2023-03-25T14:08:33.179Z,83.41
2023-03-25T14:11:16.909Z,83.39
2023-03-25T14:13:53.434Z,82.92
2023-03-25T14:16:30.724Z,82.82
2023-03-25T14:19:06.792Z,82.73
2023-03-25T14:21:46.052Z,82.71
2023-03-25T14:24:22.465Z,82.78
2023-03-25T14:26:58.901Z,82.39
2023-03-25T14:29:38.440Z,82.31
2023-03-25T14:32:32.925Z,82.27
2023-03-25T14:35:41.834Z,82.28
2023-03-25T14:38:53.804Z,82.29
2023-03-25T14:41:57.832Z,82.33
2023-03-25T14:44:33.264Z,82.16
2023-03-25T14:47:30.423Z,81.99
2023-03-25T14:50:13.168Z,82.08
2023-03-25T14:52:48.716Z,82.12
2023-03-25T14:55:24.316Z,82.12
2023-03-25T14:58:02.083Z,82.21
2023-03-25T15:00:38.959Z,81.94
2023-03-25T15:03:16.168Z,82.04
2023-03-25T15:05:58.198Z,81.98
2023-03-25T15:08:34.984Z,81.93
2023-03-25T15:11:11.970Z,81.99
2023-03-25T15:13:49.704Z,81.96
2023-03-25T15:16:30.612Z,81.98
2023-03-25T15:19:07.629Z,82.05
2023-03-25T15:22:20.481Z,82.08
2023-03-25T15:24:59.988Z,81.95
2023-03-25T15:27:53.006Z,82.08
2023-03-25T15:30:46.327Z,82.16
2023-03-25T15:33:26.119Z,82.20
2023-03-25T15:36:08.628Z,82.27
2023-03-25T15:39:00.397Z,82.33
2023-03-25T15:41:47.104Z,82.28
2023-03-25T15:44:58.892Z,82.22
2023-03-25T15:48:10.034Z,82.23
2023-03-25T15:54:03.377Z,82.50
2023-03-25T15:56:40.875Z,82.32
2023-03-25T15:59:19.484Z,82.37
2023-03-25T16:01:54.616Z,82.51
2023-03-25T16:04:32.225Z,82.47
2023-03-25T16:07:09.173Z,82.52
2023-03-25T16:09:49.285Z,82.60
2023-03-25T16:12:25.174Z,82.57
2023-03-25T16:14:58.554Z,82.54
2023-03-25T16:17:35.222Z,82.62
2023-03-25T16:20:13.459Z,82.54
2023-03-25T16:22:51.125Z,82.64
2023-03-25T16:25:28.219Z,82.64
2023-03-25T16:28:07.255Z,82.57
2023-03-25T16:30:42.897Z,82.62
2023-03-25T16:33:20.564Z,82.68
2023-03-25T16:35:57.123Z,82.71
2023-03-25T16:38:31.764Z,82.78
2023-03-25T16:41:07.585Z,82.83
2023-03-25T16:43:41.456Z,82.90
2023-03-25T16:46:16.442Z,82.98
2023-03-25T16:48:54.384Z,82.92
2023-03-25T16:51:34.412Z,82.92
2023-03-25T16:54:13.790Z,82.92
2023-03-25T16:56:48.424Z,82.99
2023-03-25T16:59:25.179Z,83.03
2023-03-25T17:02:01.719Z,83.07
2023-03-25T17:04:42.194Z,83.15
2023-03-25T17:07:20.020Z,83.19
2023-03-25T17:09:52.857Z,83.25
2023-03-25T17:12:35.420Z,83.27
2023-03-25T17:15:17.601Z,83.11
2023-03-25T17:17:56.721Z,83.23
2023-03-25T17:20:34.732Z,83.34
2023-03-25T17:23:10.964Z,83.42
2023-03-25T17:25:54.981Z,83.50
2023-03-25T17:28:35.381Z,83.55
2023-03-25T17:31:26.033Z,83.56
2023-03-25T17:36:47.802Z,83.77
2023-03-25T17:39:23.466Z,84.72
2023-03-25T17:42:01.730Z,84.12
2023-03-25T17:44:37.477Z,83.84
2023-03-25T17:47:14.724Z,83.66
2023-03-25T17:49:49.169Z,83.55
2023-03-25T17:52:22.610Z,83.51
2023-03-25T17:54:55.871Z,83.43
2023-03-25T17:57:38.615Z,83.42
2023-03-25T18:00:19.921Z,83.46
2023-03-25T18:03:03.360Z,83.46
2023-03-25T18:05:37.281Z,83.43
2023-03-25T18:08:14.237Z,83.50
2023-03-25T18:10:47.844Z,83.66
2023-03-25T18:13:23.928Z,83.73
2023-03-25T18:15:58.878Z,83.77
2023-03-25T18:18:32.668Z,83.74
2023-03-25T18:21:15.709Z,83.81
2023-03-25T18:23:49.486Z,83.87
2023-03-25T18:26:23.173Z,83.88
2023-03-25T18:28:56.580Z,83.87
2023-03-25T18:31:30.573Z,83.94
2023-03-25T18:34:04.576Z,83.96
2023-03-25T18:36:38.397Z,84.03
2023-03-25T18:39:16.852Z,83.99
2023-03-25T18:41:50.707Z,84.04
2023-03-25T18:44:26.119Z,83.98
2023-03-25T18:46:59.451Z,84.07
2023-03-25T18:49:33.092Z,84.07
2023-03-25T18:52:07.123Z,84.09
2023-03-25T18:54:41.380Z,84.15
2023-03-25T18:57:15.120Z,84.12
2023-03-25T18:59:48.458Z,84.22
2023-03-25T19:02:21.929Z,84.18
2023-03-25T19:05:00.959Z,84.25
2023-03-25T19:07:32.347Z,84.28
2023-03-25T19:10:06.190Z,84.33
2023-03-25T19:12:39.760Z,84.31
2023-03-25T19:15:15.397Z,84.28
2023-03-25T19:17:49.832Z,84.29
2023-03-25T19:20:25.380Z,84.29
2023-03-25T19:22:59.339Z,84.33
2023-03-25T19:25:32.985Z,84.36
2023-03-25T19:28:06.930Z,84.33
2023-03-25T19:30:40.975Z,84.32
2023-03-25T19:33:15.556Z,84.40
2023-03-25T19:35:54.436Z,84.47
2023-03-25T19:38:28.840Z,84.49
2023-03-25T19:41:08.485Z,84.43
2023-03-25T19:43:42.363Z,84.38
2023-03-25T19:46:16.047Z,84.27
2023-03-25T19:48:49.464Z,84.31
2023-03-25T19:51:22.880Z,84.23
2023-03-25T19:53:57.805Z,84.25
2023-03-25T19:56:31.595Z,84.27
2023-03-25T19:59:05.269Z,84.24
2023-03-25T20:01:38.838Z,84.18
2023-03-25T20:04:14.958Z,84.13
2023-03-25T20:06:48.793Z,84.06
2023-03-25T20:09:41.901Z,84.04
2023-03-25T20:12:16.842Z,84.03
2023-03-25T20:14:50.987Z,84.08
2023-03-25T20:17:24.641Z,84.07
2023-03-25T20:19:58.373Z,84.10
2023-03-25T20:22:33.025Z,84.14
2023-03-25T20:25:07.931Z,84.10
2023-03-25T20:27:42.102Z,84.11
2023-03-25T20:30:18.848Z,84.11
2023-03-25T20:32:52.580Z,84.08
2023-03-25T20:35:49.835Z,84.10
2023-03-25T20:38:23.686Z,84.13
2023-03-25T20:40:57.562Z,84.16
2023-03-25T20:43:31.432Z,84.18
2023-03-25T20:46:05.507Z,84.20
2023-03-25T20:48:38.996Z,84.12
2023-03-25T20:51:12.912Z,84.07
2023-03-25T20:53:46.528Z,84.03
2023-03-25T20:56:19.879Z,84.03
2023-03-25T20:58:54.097Z,84.08
2023-03-25T21:01:28.040Z,84.05
2023-03-25T21:04:02.442Z,84.07
2023-03-25T21:06:35.915Z,84.04
2023-03-25T21:09:10.760Z,84.08
2023-03-25T21:11:44.278Z,84.01
2023-03-25T21:14:19.160Z,83.97
2023-03-25T21:16:54.478Z,83.95
2023-03-25T21:19:28.293Z,83.86
2023-03-25T21:22:01.939Z,83.77
2023-03-25T21:24:35.992Z,83.77
2023-03-25T21:27:09.381Z,83.79
2023-03-25T21:29:42.513Z,83.72
2023-03-25T21:32:16.011Z,83.76
2023-03-25T21:34:49.720Z,83.75
2023-03-25T21:37:23.248Z,83.80
2023-03-25T21:39:58.313Z,83.82
2023-03-25T21:42:32.481Z,83.84
2023-03-25T21:45:08.082Z,83.82
2023-03-25T21:47:41.874Z,83.84
2023-03-25T21:50:16.634Z,83.79
2023-03-25T21:52:50.345Z,83.75
2023-03-25T21:55:24.167Z,83.79
2023-03-25T21:57:59.818Z,83.76
2023-03-25T22:00:33.532Z,83.76
2023-03-25T22:03:08.964Z,83.79
2023-03-25T22:05:42.734Z,83.83
2023-03-25T22:08:17.092Z,83.74
2023-03-25T22:10:50.796Z,83.78
2023-03-25T22:13:24.488Z,83.73
2023-03-25T22:15:57.833Z,83.72
2023-03-25T22:18:32.710Z,83.72
2023-03-25T22:21:12.534Z,83.73
2023-03-25T22:23:47.010Z,83.75
2023-03-25T22:26:21.288Z,83.71
2023-03-25T22:28:58.802Z,83.68
2023-03-25T22:31:34.000Z,83.64
2023-03-25T22:34:11.779Z,83.56
2023-03-25T22:36:48.744Z,83.52
2023-03-25T22:39:25.028Z,83.56
2023-03-25T22:41:58.686Z,83.52
2023-03-25T22:44:32.197Z,83.53
2023-03-25T22:47:06.081Z,83.58
2023-03-25T22:49:39.721Z,83.60
2023-03-25T22:52:13.118Z,83.58
2023-03-25T22:54:46.958Z,83.61
2023-03-25T22:57:21.494Z,83.64
2023-03-25T22:59:55.350Z,83.68
2023-03-25T23:02:29.350Z,83.71
2023-03-25T23:05:03.331Z,83.77
2023-03-25T23:07:37.141Z,83.76
2023-03-25T23:10:13.298Z,83.71
2023-03-25T23:12:47.122Z,83.68
2023-03-25T23:15:20.692Z,83.68
2023-03-25T23:17:53.913Z,83.67
2023-03-25T23:20:28.094Z,83.65
2023-03-25T23:23:02.873Z,83.62
2023-03-25T23:25:36.353Z,83.65
2023-03-25T23:28:10.404Z,83.63
2023-03-25T23:30:46.575Z,83.62
2023-03-25T23:33:20.530Z,83.55
2023-03-25T23:35:54.214Z,83.48
2023-03-25T23:38:27.796Z,83.43
2023-03-25T23:41:06.342Z,83.37
2023-03-25T23:43:41.371Z,83.33
2023-03-25T23:46:17.131Z,83.30
2023-03-25T23:48:52.757Z,83.34
2023-03-25T23:51:27.218Z,83.37
2023-03-25T23:54:00.665Z,83.45
2023-03-25T23:56:34.597Z,83.44
2023-03-25T23:59:08.241Z,83.33
